Aérodrome :
LOGIN :

S'inscrire | Disclaimer

   EN    FR    IT 

 










Légende :    VFR   VFR Marginal   IFR   IFR Intensif   IFR Très Intensif
Visi : 
Plafond : 
>= 8 km
>= 3000ft
5 à 8 km
1000 à 3000 ft
1500m à 5 km
500 à 1000 ft
800 à 1500m
200 à 500 ft
< 800m
< 200 ft
Symboles :   Orages  Brouillard  Fortes neiges  Fortes précipitations  Vent > 20 kt
SIGMETs :   Divers  Orages  Givrage  Turbulence  Onde Orograph.  Cendres Volcan.







- Altitude de l'aérodrome : 170 ft
- Code IATA : KRP


EKKA - Karup

DERNIER METAR :
  • 170450Z AUTO 18005KT 9999 BKN026/// 13/12 Q1019 NOSIG

METARs EXPIRÉS :
  • 170420Z AUTO 18005KT 9000 SCT025/// 13/12 Q1019
  • 170350Z AUTO 18005KT 7000 FEW023/// SCT032/// BKN040/// 11/11 Q1019
  • 170320Z AUTO 17004KT 6000 SCT035/// 11/10 Q1019
  • 170250Z 16003KT 3500 MIFG BR NSC 10/10 Q1019
  • 170220Z 16003KT 2000 MIFG BR NSC 10/09 Q1019 RMK FEW200

TAF TAF EKKA
Valide du 17 à 03h jusqu'au 18 à 03h UTC


170207Z 1703/1803 18004KT 9999 SCT030
TEMPO 1703/1704 1200 MIFG BR
BECMG 1705/1708 23012KT
BECMG 1717/1720 15006KT
Pas de NOTAMs connus pour ce terrain.



MET'MAP, la Météo Aéronautique d'un coup d'oeil ! - Copyright ORBIFLY Décembre 2007 - Disclaimer

ORBIFLY MET'MAP TEAM :

Programmation & Développement : Alexandra Zaïnal
Conception & Développement : Baudouin d'Aumeries
Co-Programmation & Développement : Marc-Olivier Méhu
Soutien technique & logistique : Manuel Goepfert

Contact : metmap@orbifly.com




SOURCES & CREDITS :

   NOAA